createdAt,value
2019-03-17T00:00:27.333Z,3.6
2019-03-17T00:01:17.022Z,3.5
2019-03-17T00:02:07.352Z,3.5
2019-03-17T00:02:56.852Z,3.5
2019-03-17T00:03:47.227Z,3.4
2019-03-17T00:04:37.227Z,3.4
2019-03-17T00:05:27.615Z,3.4
2019-03-17T00:06:17.372Z,3.4
2019-03-17T00:07:07.728Z,3.4
2019-03-17T00:07:57.767Z,3.4
2019-03-17T00:08:47.535Z,3.4
2019-03-17T00:09:37.363Z,3.3
2019-03-17T00:10:27.943Z,3.4
2019-03-17T00:11:17.732Z,3.3
2019-03-17T00:12:07.794Z,3.3
2019-03-17T00:12:58.120Z,3.3
2019-03-17T00:13:48.184Z,3.3
2019-03-17T00:14:37.984Z,3.3
2019-03-17T00:15:28.301Z,3.3
2019-03-17T00:16:18.094Z,3.2
2019-03-17T00:17:08.145Z,3.2
2019-03-17T00:17:58.569Z,3.2
2019-03-17T00:18:47.705Z,3.2
2019-03-17T00:19:38.597Z,3.2
2019-03-17T00:20:28.651Z,3.1
2019-03-17T00:21:18.162Z,3.1
2019-03-17T00:22:08.635Z,3.1
2019-03-17T00:22:58.611Z,3.1
2019-03-17T00:23:48.898Z,3.1
2019-03-17T00:24:38.951Z,3.1
2019-03-17T00:25:28.729Z,3
2019-03-17T00:26:19.077Z,3.1
2019-03-17T00:27:09.159Z,3
2019-03-17T00:27:58.915Z,3
2019-03-17T00:28:48.979Z,3
2019-03-17T00:29:38.756Z,2.9
2019-03-17T00:30:29.359Z,3
2019-03-17T00:31:26.159Z,2.9
2019-03-17T00:32:09.197Z,2.9
2019-03-17T00:32:59.538Z,2.9
2019-03-17T00:33:49.071Z,2.9
2019-03-17T00:34:46.691Z,2.9
2019-03-17T00:35:29.453Z,2.9
2019-03-17T00:36:19.521Z,2.9
2019-03-17T00:37:09.846Z,2.9
2019-03-17T00:37:59.655Z,2.9
2019-03-17T00:38:49.690Z,2.9
2019-03-17T00:39:39.750Z,2.9
2019-03-17T00:40:29.830Z,2.9
2019-03-17T00:41:19.858Z,2.9
2019-03-17T00:42:10.008Z,2.9
2019-03-17T00:42:59.995Z,2.9
2019-03-17T00:43:50.339Z,2.9
2019-03-17T00:44:40.375Z,2.9
2019-03-17T00:45:30.184Z,2.9
2019-03-17T00:46:20.225Z,2.9
2019-03-17T00:47:13.034Z,2.9
2019-03-17T00:48:00.349Z,2.9
2019-03-17T00:48:50.387Z,2.9
2019-03-17T00:49:40.825Z,2.8
2019-03-17T00:50:30.798Z,2.9
2019-03-17T00:51:20.864Z,2.8
2019-03-17T00:52:10.718Z,2.8
2019-03-17T00:53:00.419Z,2.9
2019-03-17T00:53:50.764Z,2.8
2019-03-17T00:54:40.563Z,2.8
2019-03-17T00:55:30.882Z,2.8
2019-03-17T00:56:20.940Z,2.8
2019-03-17T00:57:10.719Z,2.8
2019-03-17T00:58:02.297Z,2.8
2019-03-17T00:58:51.114Z,2.8
2019-03-17T00:59:41.187Z,2.8
2019-03-17T01:00:30.962Z,2.8
2019-03-17T01:01:21.030Z,2.8
2019-03-17T01:02:11.427Z,2.9
2019-03-17T01:03:01.429Z,2.9
2019-03-17T01:03:51.487Z,2.9
2019-03-17T01:04:41.262Z,2.9
2019-03-17T01:05:33.313Z,2.9
2019-03-17T01:06:21.932Z,2.9
2019-03-17T01:07:12.072Z,3
2019-03-17T01:08:01.789Z,3
2019-03-17T01:08:51.558Z,3
2019-03-17T01:09:42.184Z,3.1
2019-03-17T01:10:31.967Z,3.1
2019-03-17T01:11:22.032Z,3.1
2019-03-17T01:12:12.354Z,3.1
2019-03-17T01:13:01.591Z,3.1
2019-03-17T01:13:51.914Z,3.2
2019-03-17T01:14:42.533Z,3.2
2019-03-17T01:15:32.581Z,3.3
2019-03-17T01:16:22.666Z,3.3
2019-03-17T01:17:12.461Z,3.3
2019-03-17T01:18:02.556Z,3.3
2019-03-17T01:18:52.599Z,3.3
2019-03-17T01:19:42.878Z,3.4
2019-03-17T01:20:32.398Z,3.3
2019-03-17T01:21:23.005Z,3.4
2019-03-17T01:22:13.051Z,3.4
2019-03-17T01:23:02.838Z,3.4
2019-03-17T01:23:52.907Z,3.4
2019-03-17T01:24:43.248Z,3.4
2019-03-17T01:25:33.303Z,3.4
2019-03-17T01:26:23.075Z,3.5
2019-03-17T01:27:13.413Z,3.6
2019-03-17T01:28:03.242Z,3.6
2019-03-17T01:28:53.544Z,3.6
2019-03-17T01:29:43.307Z,3.6
2019-03-17T01:30:33.658Z,3.6
2019-03-17T01:31:23.465Z,3.6
2019-03-17T01:32:13.512Z,3.7
2019-03-17T01:33:03.583Z,3.7
2019-03-17T01:33:53.352Z,3.7
2019-03-17T01:34:43.951Z,3.7
2019-03-17T01:35:34.694Z,3.8
2019-03-17T01:36:23.520Z,3.8
2019-03-17T01:37:13.844Z,3.8
2019-03-17T01:38:04.189Z,3.8
2019-03-17T01:38:54.253Z,3.8
2019-03-17T01:39:44.044Z,3.8
2019-03-17T01:40:34.397Z,3.8
2019-03-17T01:41:23.651Z,3.9
2019-03-17T01:42:14.202Z,3.9
2019-03-17T01:43:04.283Z,3.9
2019-03-17T01:43:54.399Z,3.9
2019-03-17T01:44:44.676Z,3.9
2019-03-17T01:45:34.450Z,4
2019-03-17T01:46:24.566Z,4
2019-03-17T01:47:14.851Z,4.1
2019-03-17T01:48:04.909Z,4.1
2019-03-17T01:48:54.970Z,4.1
2019-03-17T01:49:44.747Z,4.2
2019-03-17T01:50:35.095Z,4.2
2019-03-17T01:51:25.154Z,4.3
2019-03-17T01:52:14.943Z,4.2
2019-03-17T01:53:05.277Z,4.2
2019-03-17T01:53:55.051Z,4.3
2019-03-17T01:54:45.400Z,4.3
2019-03-17T01:55:35.451Z,4.3
2019-03-17T01:56:24.949Z,4.3
2019-03-17T01:57:15.294Z,4.3
2019-03-17T01:58:05.343Z,4.4
2019-03-17T01:58:55.411Z,4.4
2019-03-17T01:59:45.523Z,4.4
2019-03-17T02:00:35.297Z,4.4
2019-03-17T02:01:25.637Z,4.4
2019-03-17T02:02:15.928Z,4.4
2019-03-17T02:03:06.033Z,4.4
2019-03-17T02:03:55.768Z,4.4
2019-03-17T02:04:45.546Z,4.5
2019-03-17T02:05:36.146Z,4.5
2019-03-17T02:06:25.701Z,4.5
2019-03-17T02:07:15.990Z,4.5
2019-03-17T02:08:06.051Z,4.6
2019-03-17T02:08:55.845Z,4.6
2019-03-17T02:09:46.253Z,4.6
2019-03-17T02:10:36.013Z,4.6
2019-03-17T02:11:26.032Z,4.6
2019-03-17T02:12:16.635Z,4.6
2019-03-17T02:13:06.685Z,4.6
2019-03-17T02:13:56.203Z,4.6
2019-03-17T02:14:46.024Z,4.6
2019-03-17T02:15:36.315Z,4.6
2019-03-17T02:16:26.928Z,4.6
2019-03-17T02:17:17.000Z,4.6
2019-03-17T02:18:07.060Z,4.6
2019-03-17T02:18:56.830Z,4.6
2019-03-17T02:19:46.625Z,4.6
2019-03-17T02:20:37.237Z,4.6
2019-03-17T02:21:27.282Z,4.6
2019-03-17T02:22:16.527Z,4.6
2019-03-17T02:23:06.334Z,4.6
2019-03-17T02:23:57.192Z,4.6
2019-03-17T02:24:47.529Z,4.6
2019-03-17T02:25:37.582Z,4.6
2019-03-17T02:26:27.372Z,4.6
2019-03-17T02:27:17.751Z,4.5
2019-03-17T02:28:07.822Z,4.5
2019-03-17T02:28:57.542Z,4.5
2019-03-17T02:29:47.893Z,4.5
2019-03-17T02:30:37.459Z,4.5
2019-03-17T02:31:27.774Z,4.5
2019-03-17T02:32:17.567Z,4.4
2019-03-17T02:33:07.882Z,4.4
2019-03-17T02:33:57.950Z,4.4
2019-03-17T02:34:47.999Z,4.4
2019-03-17T02:35:42.159Z,4.4
2019-03-17T02:36:28.001Z,4.4
2019-03-17T02:37:18.229Z,4.3
2019-03-17T02:38:08.230Z,4.3
2019-03-17T02:38:57.999Z,4.3
2019-03-17T02:39:48.363Z,4.3
2019-03-17T02:40:38.442Z,4.3
2019-03-17T02:41:28.457Z,4.2
2019-03-17T02:42:18.573Z,4.2
2019-03-17T02:43:08.591Z,4.2
2019-03-17T02:43:59.057Z,4.2
2019-03-17T02:44:48.715Z,4.1
2019-03-17T02:45:38.784Z,4.1
2019-03-17T02:46:28.797Z,4.1
2019-03-17T02:47:19.170Z,4
2019-03-17T02:48:08.668Z,4
2019-03-17T02:48:59.288Z,3.9
2019-03-17T02:49:49.338Z,3.9
2019-03-17T02:50:39.396Z,3.9
2019-03-17T02:51:29.178Z,3.9
2019-03-17T02:52:19.280Z,3.9
2019-03-17T02:53:09.015Z,3.8
2019-03-17T02:53:59.378Z,3.8
2019-03-17T02:54:49.701Z,3.8
2019-03-17T02:55:39.232Z,3.7
2019-03-17T02:56:29.550Z,3.7
2019-03-17T02:57:19.864Z,3.6
2019-03-17T02:58:09.965Z,3.6
2019-03-17T02:58:59.997Z,3.6
2019-03-17T02:59:49.758Z,3.6
2019-03-17T03:00:40.134Z,3.5
2019-03-17T03:01:30.171Z,3.5
2019-03-17T03:02:20.258Z,3.4
2019-03-17T03:03:10.318Z,3.4
2019-03-17T03:04:00.093Z,3.4
2019-03-17T03:07:31.725Z,3.3
2019-03-17T03:08:21.750Z,3.2
2019-03-17T03:09:11.512Z,3.2
2019-03-17T03:10:02.141Z,3.2
2019-03-17T03:10:52.010Z,3.2
2019-03-17T03:11:41.693Z,3.2
2019-03-17T03:12:32.037Z,3.2
2019-03-17T03:13:21.521Z,3.2
2019-03-17T03:14:12.140Z,3.2
2019-03-17T03:15:02.275Z,3.2
2019-03-17T03:15:52.035Z,3.2
2019-03-17T03:16:42.316Z,3.2
2019-03-17T03:17:32.122Z,3.2
2019-03-17T03:18:22.172Z,3.1
2019-03-17T03:19:12.497Z,3.1
2019-03-17T03:20:02.895Z,3.1
2019-03-17T03:20:52.603Z,3.2
2019-03-17T03:21:42.651Z,3.2
2019-03-17T03:22:32.851Z,3.2
2019-03-17T03:23:22.767Z,3.2
2019-03-17T03:24:12.854Z,3.2
2019-03-17T03:25:03.165Z,3.2
2019-03-17T03:25:52.700Z,3.2
2019-03-17T03:26:42.753Z,3.3
2019-03-17T03:27:33.065Z,3.3
2019-03-17T03:28:23.156Z,3.3
2019-03-17T03:29:13.216Z,3.3
2019-03-17T03:30:03.312Z,3.3
2019-03-17T03:30:53.418Z,3.3
2019-03-17T03:31:43.176Z,3.3
2019-03-17T03:32:33.503Z,3.3
2019-03-17T03:33:23.745Z,3.3
2019-03-17T03:34:13.581Z,3.3
2019-03-17T03:35:03.713Z,3.3
2019-03-17T03:36:09.320Z,3.3
2019-03-17T03:36:43.438Z,3.3
2019-03-17T03:37:33.776Z,3.3
2019-03-17T03:38:23.611Z,3.3
2019-03-17T03:39:13.963Z,3.4
2019-03-17T03:40:03.731Z,3.4
2019-03-17T03:40:54.048Z,3.4
2019-03-17T03:41:44.079Z,3.4
2019-03-17T03:42:33.869Z,3.4
2019-03-17T03:43:24.213Z,3.4
2019-03-17T03:44:14.290Z,3.4
2019-03-17T03:45:04.331Z,3.5
2019-03-17T03:45:53.533Z,3.6
2019-03-17T03:46:44.470Z,3.6
2019-03-17T03:47:34.558Z,3.6
2019-03-17T03:48:24.288Z,3.6
2019-03-17T03:49:14.667Z,3.6
2019-03-17T03:50:04.689Z,3.6
2019-03-17T03:50:54.777Z,3.6
2019-03-17T03:51:44.061Z,3.6
2019-03-17T03:52:34.598Z,3.6
2019-03-17T03:53:24.896Z,3.6
2019-03-17T03:54:14.976Z,3.6
2019-03-17T03:55:05.038Z,3.6
2019-03-17T03:55:54.544Z,3.6
2019-03-17T03:56:45.156Z,3.7
2019-03-17T03:57:34.931Z,3.7
2019-03-17T03:58:25.286Z,3.7
2019-03-17T03:59:14.787Z,3.7
2019-03-17T04:00:05.117Z,3.7
2019-03-17T04:00:55.187Z,3.7
2019-03-17T04:01:45.250Z,3.7
2019-03-17T04:02:35.663Z,3.8
2019-03-17T04:03:25.640Z,3.8
2019-03-17T04:04:15.430Z,3.8
2019-03-17T04:05:05.726Z,3.8
2019-03-17T04:05:55.804Z,3.8
2019-03-17T04:06:45.629Z,3.8
2019-03-17T04:07:36.052Z,3.8
2019-03-17T04:08:25.753Z,3.9
2019-03-17T04:09:16.034Z,3.9
2019-03-17T04:10:05.837Z,3.9
2019-03-17T04:10:55.868Z,3.9
2019-03-17T04:11:46.209Z,3.9
2019-03-17T04:12:36.258Z,3.9
2019-03-17T04:13:25.766Z,3.9
2019-03-17T04:14:16.159Z,3.9
2019-03-17T04:15:06.169Z,3.9
2019-03-17T04:15:56.501Z,3.9
2019-03-17T04:16:46.101Z,3.9
2019-03-17T04:17:36.603Z,3.9
2019-03-17T04:18:26.678Z,3.8
2019-03-17T04:19:16.484Z,3.8
2019-03-17T04:20:06.555Z,3.8
2019-03-17T04:20:56.918Z,3.8
2019-03-17T04:21:46.098Z,3.8
2019-03-17T04:22:36.731Z,3.7
2019-03-17T04:23:26.756Z,3.7
2019-03-17T04:24:17.142Z,3.6
2019-03-17T04:25:07.491Z,3.6
2019-03-17T04:25:57.210Z,3.6
2019-03-17T04:26:46.993Z,3.6
2019-03-17T04:27:36.791Z,3.6
2019-03-17T04:28:27.436Z,3.6
2019-03-17T04:29:17.453Z,3.5
2019-03-17T04:30:07.309Z,3.5
2019-03-17T04:30:57.553Z,3.5
2019-03-17T04:31:47.062Z,3.4
2019-03-17T04:32:37.669Z,3.4
2019-03-17T04:33:27.455Z,3.4
2019-03-17T04:34:17.810Z,3.4
2019-03-17T04:35:07.943Z,3.4
2019-03-17T04:35:57.909Z,3.3
2019-03-17T04:36:47.679Z,3.3
2019-03-17T04:37:37.843Z,3.3
2019-03-17T04:38:28.095Z,3.3
2019-03-17T04:39:17.875Z,3.3
2019-03-17T04:40:07.983Z,3.3
2019-03-17T04:40:57.981Z,3.3
2019-03-17T04:41:48.306Z,3.2
2019-03-17T04:42:38.084Z,3.2
2019-03-17T04:43:28.152Z,3.2
2019-03-17T04:44:23.504Z,3.2
2019-03-17T04:45:08.306Z,3.2
2019-03-17T04:45:58.662Z,3.1
2019-03-17T04:46:48.386Z,3.1
2019-03-17T04:47:38.731Z,3.1
2019-03-17T04:48:28.219Z,3.1
2019-03-17T04:49:18.864Z,3.1
2019-03-17T04:50:08.645Z,3.1
2019-03-17T04:50:58.963Z,3.1
2019-03-17T04:51:49.031Z,3.1
2019-03-17T04:52:39.081Z,3.1
2019-03-17T04:53:28.589Z,3.1
2019-03-17T04:54:19.194Z,3.1
2019-03-17T04:55:08.706Z,3.1
2019-03-17T04:55:59.059Z,3.1
2019-03-17T04:56:49.399Z,3.1
2019-03-17T04:57:39.209Z,3.1
2019-03-17T04:58:29.503Z,3.1
2019-03-17T04:59:19.546Z,3.1
2019-03-17T05:00:09.349Z,3.1
2019-03-17T05:00:59.404Z,3.1
2019-03-17T05:01:49.748Z,3.1
2019-03-17T05:02:39.801Z,3.1
2019-03-17T05:03:29.858Z,3.2
2019-03-17T05:04:19.441Z,3.2
2019-03-17T05:05:09.999Z,3.2
2019-03-17T05:06:00.034Z,3.3
2019-03-17T05:06:54.971Z,3.3
2019-03-17T05:07:39.891Z,3.3
2019-03-17T05:08:30.189Z,3.4
2019-03-17T05:09:20.256Z,3.4
2019-03-17T05:10:10.327Z,3.6
2019-03-17T05:10:59.833Z,3.6
2019-03-17T05:11:50.451Z,3.8
2019-03-17T05:12:40.231Z,3.9
2019-03-17T05:13:30.015Z,4.1
2019-03-17T05:14:20.612Z,4.3
2019-03-17T05:15:10.386Z,4.4
2019-03-17T05:16:00.453Z,4.7
2019-03-17T05:16:50.230Z,4.9
2019-03-17T05:17:40.848Z,5.2
2019-03-17T05:18:30.633Z,5.4
2019-03-17T05:19:20.690Z,5.8
2019-03-17T05:20:11.023Z,6.1
2019-03-17T05:21:00.885Z,6.4
2019-03-17T05:21:50.862Z,6.8
2019-03-17T05:22:41.208Z,7.1
2019-03-17T05:23:31.267Z,7.4
2019-03-17T05:24:21.092Z,7.7
2019-03-17T05:25:11.165Z,8
2019-03-17T05:26:01.451Z,8.4
2019-03-17T05:26:51.502Z,8.7
2019-03-17T05:27:41.337Z,9
2019-03-17T05:28:31.637Z,9.4
2019-03-17T05:29:21.707Z,9.7
2019-03-17T05:30:11.744Z,10.1
2019-03-17T05:31:01.242Z,10.4
2019-03-17T05:31:51.869Z,10.8
2019-03-17T05:32:41.637Z,11.1
2019-03-17T05:33:31.967Z,11.5
2019-03-17T05:34:22.042Z,11.9
2019-03-17T05:35:11.828Z,12.3
2019-03-17T05:36:01.892Z,12.6
2019-03-17T05:37:06.889Z,13
2019-03-17T05:37:42.019Z,13.6
2019-03-17T05:38:32.319Z,13.8
2019-03-17T05:39:22.130Z,14.2
2019-03-17T05:40:12.219Z,14.6
2019-03-17T05:41:02.504Z,14.9
2019-03-17T05:41:52.273Z,15.3
2019-03-17T05:42:43.305Z,15.7
2019-03-17T05:43:32.688Z,16.2
2019-03-17T05:44:22.761Z,16.6
2019-03-17T05:45:12.806Z,17.1
2019-03-17T05:46:02.628Z,17.6
2019-03-17T05:46:52.643Z,18
2019-03-17T05:47:42.722Z,18.5
2019-03-17T05:48:32.763Z,19
2019-03-17T05:49:22.830Z,19.5
2019-03-17T05:50:13.158Z,20.1
2019-03-17T05:51:03.203Z,20.6
2019-03-17T05:51:53.273Z,21.1
2019-03-17T05:52:43.058Z,21.6
2019-03-17T05:53:33.392Z,22.1
2019-03-17T05:54:23.504Z,22.7
2019-03-17T05:55:13.513Z,23.3
2019-03-17T05:56:03.578Z,23.8
2019-03-17T05:56:53.161Z,24.3
2019-03-17T05:57:43.427Z,24.8
2019-03-17T05:58:33.791Z,25.4
2019-03-17T05:59:23.820Z,25.9
2019-03-17T06:00:13.903Z,26.4
2019-03-17T06:01:03.658Z,27
2019-03-17T06:01:53.981Z,27.5
2019-03-17T06:02:44.027Z,28.1
2019-03-17T06:03:33.554Z,28.6
2019-03-17T06:05:31.023Z,29.8
2019-03-17T06:06:21.282Z,30.3
2019-03-17T06:07:20.907Z,30.8
2019-03-17T06:08:01.673Z,31.3
2019-03-17T06:08:51.735Z,31.7
2019-03-17T06:09:41.513Z,32.3
2019-03-17T06:10:31.845Z,32.8
2019-03-17T06:11:21.626Z,33.3
2019-03-17T06:12:11.671Z,33.7
2019-03-17T06:13:02.042Z,34.2
2019-03-17T06:13:53.845Z,34.6
2019-03-17T06:14:42.137Z,35
2019-03-17T06:15:31.919Z,35.4
2019-03-17T06:16:21.714Z,36
2019-03-17T06:17:12.052Z,36.5
2019-03-17T06:18:02.369Z,36.9
2019-03-17T06:18:51.889Z,37.4
2019-03-17T06:19:42.497Z,37.9
2019-03-17T06:20:32.269Z,38.4
2019-03-17T06:21:22.652Z,38.9
2019-03-17T06:22:12.397Z,39.4
2019-03-17T06:23:02.839Z,39.8
2019-03-17T06:23:52.509Z,40.3
2019-03-17T06:24:42.295Z,40.7
2019-03-17T06:25:33.011Z,41.1
2019-03-17T06:26:22.976Z,41.6
2019-03-17T06:27:13.066Z,41.9
2019-03-17T06:28:02.806Z,42.3
2019-03-17T06:28:52.949Z,42.5
2019-03-17T06:29:42.918Z,43
2019-03-17T06:30:32.982Z,43.5
2019-03-17T06:31:23.316Z,43.9
2019-03-17T06:32:13.103Z,44.4
2019-03-17T06:33:03.439Z,44.8
2019-03-17T06:33:53.486Z,45.2
2019-03-17T06:34:43.273Z,45.6
2019-03-17T06:35:33.338Z,46.1
2019-03-17T06:36:23.682Z,46.5
2019-03-17T06:37:13.173Z,46.9
2019-03-17T06:38:03.528Z,47.4
2019-03-17T06:38:53.836Z,47.8
2019-03-17T06:39:43.913Z,48.3
2019-03-17T06:40:33.971Z,48.6
2019-03-17T06:41:23.755Z,49.1
2019-03-17T06:42:14.083Z,49.4
2019-03-17T06:43:04.165Z,49.9
2019-03-17T06:43:54.201Z,50.4
2019-03-17T06:44:43.723Z,51
2019-03-17T06:45:34.315Z,51.5
2019-03-17T06:46:24.110Z,52
2019-03-17T06:47:14.153Z,52.4
2019-03-17T06:48:04.507Z,53
2019-03-17T06:48:54.578Z,53.6
2019-03-17T06:49:44.628Z,54.1
2019-03-17T06:50:34.395Z,54.5
2019-03-17T06:51:24.484Z,55.1
2019-03-17T06:52:14.520Z,55.7
2019-03-17T06:53:04.582Z,56.2
2019-03-17T06:53:59.170Z,57.4
2019-03-17T06:54:44.702Z,54.7
2019-03-17T06:55:35.032Z,53.1
2019-03-17T06:56:24.807Z,50.4
2019-03-17T06:57:14.887Z,44.3
2019-03-17T06:58:04.672Z,40.2
2019-03-17T06:58:55.274Z,38.2
2019-03-17T06:59:45.067Z,37.3
2019-03-17T07:00:35.386Z,36.9
2019-03-17T07:01:25.465Z,37.3
2019-03-17T07:02:15.512Z,38.1
2019-03-17T07:03:05.567Z,39.1
2019-03-17T07:05:31.170Z,42.6
2019-03-17T07:06:21.501Z,44.1
2019-03-17T07:07:11.554Z,45.3
2019-03-17T07:08:01.847Z,46.6
2019-03-17T07:08:51.674Z,47.8
2019-03-17T07:09:41.447Z,48.9
2019-03-17T07:10:31.516Z,50
2019-03-17T07:11:21.644Z,51.1
2019-03-17T07:13:01.986Z,52.8
2019-03-17T07:13:52.034Z,53.8
2019-03-17T07:14:42.106Z,54.8
2019-03-17T07:15:32.166Z,55.8
2019-03-17T07:16:21.934Z,57.3
2019-03-17T07:17:11.712Z,57.5
2019-03-17T07:18:02.048Z,54.9
2019-03-17T07:18:52.103Z,53.8
2019-03-17T07:19:42.207Z,51.6
2019-03-17T07:20:32.246Z,48.6
2019-03-17T07:21:22.558Z,46
2019-03-17T07:22:12.633Z,44.9
2019-03-17T07:23:02.411Z,45.4
2019-03-17T07:23:52.755Z,46.8
2019-03-17T07:24:42.249Z,48.2
2019-03-17T07:25:32.038Z,49.6
2019-03-17T07:26:22.935Z,51.1
2019-03-17T07:28:03.050Z,53.6
2019-03-17T07:28:53.047Z,54.8
2019-03-17T07:29:42.939Z,56.2
2019-03-17T07:30:32.938Z,57.6
2019-03-17T07:31:23.023Z,56.9
2019-03-17T07:32:13.345Z,57.1
2019-03-17T07:33:03.133Z,56.2
2019-03-17T07:33:53.483Z,53.8
2019-03-17T07:34:43.540Z,51
2019-03-17T07:35:33.592Z,49.6
2019-03-17T07:36:23.645Z,50.2
2019-03-17T07:37:13.703Z,51.6
2019-03-17T07:38:03.755Z,52.9
2019-03-17T07:38:53.277Z,53.8
2019-03-17T07:39:43.602Z,53.9
2019-03-17T07:40:33.674Z,53.8
2019-03-17T07:41:24.009Z,53.3
2019-03-17T07:42:13.787Z,52.8
2019-03-17T07:43:03.857Z,52.8
2019-03-17T07:43:53.925Z,53.1
2019-03-17T07:44:44.229Z,53.6
2019-03-17T07:45:34.030Z,53.9
2019-03-17T07:46:39.229Z,54.4
2019-03-17T07:47:14.417Z,54.6
2019-03-17T07:48:04.472Z,54.6
2019-03-17T07:48:54.552Z,54.6
2019-03-17T07:49:44.592Z,54.8
2019-03-17T07:50:34.144Z,54.9
2019-03-17T07:51:24.732Z,55.2
2019-03-17T07:52:14.787Z,55.5
2019-03-17T07:53:04.277Z,55.8
2019-03-17T07:53:54.624Z,56.1
2019-03-17T07:54:44.962Z,56.2
2019-03-17T07:55:34.531Z,56.3
2019-03-17T07:56:25.081Z,56.4
2019-03-17T07:57:14.319Z,56.6
2019-03-17T07:58:05.189Z,56.6
2019-03-17T07:58:55.036Z,56.9
2019-03-17T07:59:45.321Z,57.1
2019-03-17T08:00:35.366Z,57.3
2019-03-17T08:01:25.432Z,57.6
2019-03-17T08:03:05.656Z,57.9
2019-03-17T08:03:55.606Z,58.1
2019-03-17T08:04:48.744Z,58.3
2019-03-17T08:05:35.458Z,58.4
2019-03-17T08:06:25.827Z,58.6
2019-03-17T08:07:15.290Z,58.7
2019-03-17T08:08:11.791Z,58.8
2019-03-17T08:08:55.977Z,59.1
2019-03-17T08:09:46.068Z,59.3
2019-03-17T08:10:36.105Z,59.6
2019-03-17T08:11:26.151Z,59.9
2019-03-17T08:12:15.648Z,60
2019-03-17T08:13:06.267Z,60.1
2019-03-17T08:13:56.048Z,60.3
2019-03-17T08:14:46.108Z,60.4
2019-03-17T08:15:36.250Z,60.4
2019-03-17T08:16:26.225Z,60.5
2019-03-17T08:17:16.562Z,60.6
2019-03-17T08:18:06.066Z,60.7
2019-03-17T08:18:56.385Z,60.7
2019-03-17T08:19:46.457Z,60.9
2019-03-17T08:20:36.514Z,61.1
2019-03-17T08:21:26.850Z,61.4
2019-03-17T08:22:16.940Z,61.6
2019-03-17T08:23:06.992Z,61.8
2019-03-17T10:06:30.279Z,61.2
2019-03-17T10:07:20.636Z,59.9
2019-03-17T10:08:11.424Z,59.1
2019-03-17T10:09:02.682Z,58.5
2019-03-17T10:09:51.536Z,58.1
2019-03-17T10:10:41.054Z,57.7
2019-03-17T10:11:30.906Z,57.3
2019-03-17T10:12:21.441Z,56.9
2019-03-17T10:13:11.791Z,56.6
2019-03-17T10:14:01.829Z,56.1
2019-03-17T10:14:51.887Z,55.6
2019-03-17T10:15:41.671Z,55.1
2019-03-17T10:16:32.031Z,55
2019-03-17T10:17:21.636Z,55.2
2019-03-17T10:18:12.186Z,55.6
2019-03-17T10:19:02.193Z,56.1
2019-03-17T10:19:51.493Z,56.3
2019-03-17T10:20:41.006Z,56.3
2019-03-17T10:21:32.460Z,56.5
2019-03-17T10:22:22.438Z,56.9
2019-03-17T10:23:11.936Z,57.6
2019-03-17T10:24:02.300Z,58.6
2019-03-17T10:24:52.596Z,59.6
2019-03-17T10:25:42.728Z,60.6
2019-03-17T10:26:32.449Z,61.4
2019-03-17T10:27:22.782Z,61.4
2019-03-17T10:28:12.883Z,60.8
2019-03-17T10:29:02.645Z,60.3
2019-03-17T10:29:52.954Z,60.9
2019-03-17T10:30:43.023Z,62
2019-03-17T10:31:33.085Z,63.5
2019-03-17T10:32:23.143Z,64.6
2019-03-17T10:33:13.197Z,64.8
2019-03-17T10:34:03.031Z,63.7
2019-03-17T10:34:52.923Z,62.3
2019-03-17T10:35:43.392Z,61.1
2019-03-17T10:36:33.447Z,60.3
2019-03-17T10:37:23.257Z,59.9
2019-03-17T10:38:13.564Z,59.7
2019-03-17T10:39:14.619Z,59.6
2019-03-17T10:39:53.675Z,60
2019-03-17T10:40:43.781Z,60.7
2019-03-17T10:41:33.524Z,61.4
2019-03-17T10:42:23.592Z,61.9
2019-03-17T10:43:13.939Z,62.3
2019-03-17T10:44:03.997Z,62
2019-03-17T10:44:53.489Z,61.4
2019-03-17T10:45:43.820Z,60.9
2019-03-17T10:46:33.887Z,60.1
2019-03-17T10:47:23.947Z,59.2
2019-03-17T10:48:13.999Z,58.3
2019-03-17T10:49:04.062Z,58
2019-03-17T10:49:54.397Z,58.3
2019-03-17T10:50:52.260Z,59.4
2019-03-17T10:51:34.529Z,60.8
2019-03-17T10:52:24.569Z,61.5
2019-03-17T10:53:14.637Z,61.9
2019-03-17T10:54:04.693Z,62
2019-03-17T10:54:54.498Z,61.8
2019-03-17T10:55:44.547Z,61.6
2019-03-17T10:56:34.329Z,61.2
2019-03-17T10:57:24.664Z,61.4
2019-03-17T10:58:15.027Z,62.1
2019-03-17T10:59:05.076Z,62.7
2019-03-17T10:59:54.093Z,63.3
2019-03-17T11:00:44.358Z,63.8
2019-03-17T11:01:35.250Z,64.1
2019-03-17T11:02:25.301Z,64.6
2019-03-17T11:03:14.804Z,65.4
2019-03-17T11:04:05.181Z,65.9
2019-03-17T11:04:54.718Z,66.3
2019-03-17T11:05:45.273Z,66.7
2019-03-17T11:06:35.056Z,67
2019-03-17T11:07:25.386Z,67
2019-03-17T11:08:15.456Z,66.6
2019-03-17T11:09:05.511Z,65.9
2019-03-17T11:09:55.583Z,65.5
2019-03-17T11:10:45.648Z,65.6
2019-03-17T11:11:35.955Z,65.9
2019-03-17T11:12:26.025Z,66.5
2019-03-17T11:13:16.078Z,66.9
2019-03-17T11:14:06.208Z,66.8
2019-03-17T11:14:55.920Z,66
2019-03-17T11:15:46.240Z,65.3
2019-03-17T11:16:36.041Z,64.3
2019-03-17T11:17:26.363Z,63.5
2019-03-17T11:18:16.333Z,63.2
2019-03-17T11:19:06.488Z,62.8
2019-03-17T11:19:56.281Z,62.4
2019-03-17T11:20:46.057Z,61.9
2019-03-17T11:21:36.120Z,61.6
2019-03-17T11:22:26.175Z,61
2019-03-17T11:23:16.795Z,60.3
2019-03-17T11:24:06.605Z,59.6
2019-03-17T11:24:57.033Z,59.3
2019-03-17T11:25:46.973Z,59.3
2019-03-17T11:26:36.480Z,59.4
2019-03-17T11:27:27.107Z,59.8
2019-03-17T11:28:17.233Z,60.3
2019-03-17T11:29:07.027Z,60
2019-03-17T11:29:56.996Z,59.5
2019-03-17T11:30:47.059Z,58.9
2019-03-17T11:31:37.107Z,58.4
2019-03-17T11:32:27.542Z,57.9
2019-03-17T11:33:16.947Z,58
2019-03-17T11:34:07.070Z,58.9
2019-03-17T11:34:57.079Z,60.2
2019-03-17T11:35:47.679Z,61.4
2019-03-17T11:36:37.764Z,62.1
2019-03-17T11:37:27.820Z,62.4
2019-03-17T11:38:17.867Z,62
2019-03-17T11:39:07.934Z,61.1
2019-03-17T11:39:57.731Z,60.3
2019-03-17T11:40:47.789Z,59.8
2019-03-17T11:41:37.841Z,59.8
2019-03-17T11:42:28.181Z,60.3
2019-03-17T11:43:17.989Z,61.2
2019-03-17T11:44:08.114Z,62.3
2019-03-17T11:44:58.349Z,63.1
2019-03-17T11:45:48.459Z,63.6
2019-03-17T11:46:37.646Z,63.9
2019-03-17T11:47:27.491Z,64.1
2019-03-17T11:48:18.591Z,64.4
2019-03-17T11:49:08.379Z,64.4
2019-03-17T11:49:58.172Z,63.9
2019-03-17T11:50:48.226Z,63.7
2019-03-17T11:51:38.879Z,64.3
2019-03-17T11:52:28.881Z,65.3
2019-03-17T11:53:18.411Z,66
2019-03-17T11:54:09.019Z,66.4
2019-03-17T11:54:59.143Z,67
2019-03-17T11:55:49.181Z,67.4
2019-03-17T11:56:38.644Z,67.3
2019-03-17T11:57:28.976Z,67.1
2019-03-17T11:58:19.300Z,67.1
2019-03-17T11:59:09.378Z,67.1
2019-03-17T11:59:59.468Z,67.4
2019-03-17T12:00:48.972Z,67.6
2019-03-17T12:01:38.725Z,67.8
2019-03-17T12:02:29.448Z,67.9
2019-03-17T12:03:19.388Z,67.9
2019-03-17T12:04:09.741Z,68
2019-03-17T12:06:30.955Z,68.9
2019-03-17T12:07:21.006Z,68.8
2019-03-17T12:08:11.411Z,68.6
2019-03-17T12:09:04.232Z,68.6
2019-03-17T12:09:52.991Z,68.8
2019-03-17T12:10:41.514Z,68.9
2019-03-17T12:11:31.563Z,69
2019-03-17T12:12:21.570Z,69.3
2019-03-17T12:13:11.676Z,69.4
2019-03-17T12:14:01.461Z,69.4
2019-03-17T12:14:51.531Z,69.5
2019-03-17T12:15:41.582Z,69.8
2019-03-17T12:16:31.631Z,70.1
2019-03-17T12:17:21.928Z,70.1
2019-03-17T12:18:12.316Z,70.1
2019-03-17T12:19:02.108Z,70
2019-03-17T12:19:52.242Z,69.5
2019-03-17T12:20:42.221Z,69.3
2019-03-17T12:21:32.026Z,69.3
2019-03-17T12:22:21.773Z,69.4
2019-03-17T12:23:11.563Z,69.4
2019-03-17T12:24:02.460Z,69.4
2019-03-17T12:24:52.513Z,69.1
2019-03-17T12:25:42.570Z,68.9
2019-03-17T12:26:32.350Z,68.6
2019-03-17T12:27:22.700Z,68.5
2019-03-17T12:28:12.718Z,68.3
2019-03-17T12:29:02.533Z,68.1
2019-03-17T12:29:52.605Z,68.1
2019-03-17T12:30:42.102Z,68.1
2019-03-17T12:31:32.437Z,68.1
2019-03-17T12:32:22.515Z,68
2019-03-17T12:33:13.186Z,68
2019-03-17T12:34:02.905Z,68.1
2019-03-17T12:34:52.960Z,67.9
2019-03-17T12:35:43.313Z,67.8
2019-03-17T12:36:33.100Z,67.6
2019-03-17T12:37:22.872Z,67.4
2019-03-17T12:38:13.214Z,67.1
2019-03-17T12:39:03.556Z,67
2019-03-17T12:40:05.402Z,67.1
2019-03-17T12:40:42.832Z,67.2
2019-03-17T12:41:33.440Z,67.1
2019-03-17T12:42:23.522Z,67.1
2019-03-17T12:43:13.552Z,67.1
2019-03-17T12:44:03.902Z,67.1
2019-03-17T12:44:53.684Z,66.9
2019-03-17T12:45:43.744Z,66.9
2019-03-17T12:46:34.074Z,66.9
2019-03-17T12:47:23.859Z,67.1
2019-03-17T12:48:13.914Z,67.2
2019-03-17T12:49:03.982Z,67.2
2019-03-17T12:49:54.332Z,67.3
2019-03-17T12:50:44.115Z,67.3
2019-03-17T12:51:34.434Z,67.4
2019-03-17T12:52:24.226Z,67.4
2019-03-17T12:53:14.314Z,67.1
2019-03-17T12:54:04.424Z,67
2019-03-17T12:54:54.671Z,66.9
2019-03-17T12:55:44.741Z,66.6
2019-03-17T12:56:34.794Z,66.3
2019-03-17T12:57:24.590Z,66
2019-03-17T12:58:17.176Z,65.8
2019-03-17T12:59:04.445Z,65.8
2019-03-17T12:59:55.041Z,65.7
2019-03-17T13:00:44.551Z,65.6
2019-03-17T13:01:34.346Z,65.7
2019-03-17T13:02:24.673Z,65.8
2019-03-17T13:03:15.281Z,65.6
2019-03-17T13:04:05.346Z,65.4
2019-03-17T13:04:55.116Z,65.3
2019-03-17T13:05:45.470Z,65.4
2019-03-17T13:06:34.998Z,65.1
2019-03-17T13:07:25.573Z,65.1
2019-03-17T13:08:15.653Z,65.1
2019-03-17T13:09:05.438Z,65.1
2019-03-17T13:09:55.505Z,65.1
2019-03-17T13:10:45.900Z,64.7
2019-03-17T13:11:35.620Z,64.6